createdAt,value
2019-03-08T00:01:34.028Z,1.60
2019-03-08T00:04:03.677Z,1.90
2019-03-08T00:06:33.687Z,1.97
2019-03-08T00:09:04.691Z,2.20
2019-03-08T00:11:34.284Z,1.93
2019-03-08T00:14:04.015Z,1.73
2019-03-08T00:16:33.785Z,1.70
2019-03-08T00:19:03.727Z,1.90
2019-03-08T00:21:33.392Z,1.70
2019-03-08T00:24:02.973Z,1.60
2019-03-08T00:26:32.534Z,2.40
2019-03-08T00:29:02.371Z,3.03
2019-03-08T00:31:32.108Z,2.60
2019-03-08T00:34:01.874Z,2.00
2019-03-08T00:36:31.557Z,1.73
2019-03-08T00:39:01.225Z,2.00
2019-03-08T00:41:30.827Z,1.83
2019-03-08T00:44:00.585Z,2.33
2019-03-08T00:46:30.305Z,2.10
2019-03-08T00:48:59.963Z,3.33
2019-03-08T00:51:29.773Z,2.23
2019-03-08T00:53:59.645Z,2.30
2019-03-08T00:56:29.454Z,2.70
2019-03-08T00:58:59.412Z,1.60
2019-03-08T01:01:29.140Z,1.60
2019-03-08T01:03:59.047Z,2.90
2019-03-08T01:06:29.378Z,2.73
2019-03-08T01:08:59.252Z,2.33
2019-03-08T01:11:28.828Z,2.30
2019-03-08T01:13:58.522Z,1.77
2019-03-08T01:16:28.248Z,3.27
2019-03-08T01:18:58.535Z,1.90
2019-03-08T01:21:28.156Z,2.60
2019-03-08T01:23:58.216Z,2.23
2019-03-08T01:26:28.093Z,1.57
2019-03-08T01:28:59.068Z,2.17
2019-03-08T01:31:28.823Z,2.60
2019-03-08T01:33:58.530Z,2.13
2019-03-08T01:36:28.304Z,1.60
2019-03-08T01:38:58.337Z,2.50
2019-03-08T01:41:27.983Z,1.90
2019-03-08T01:43:58.600Z,2.30
2019-03-08T01:46:28.837Z,2.00
2019-03-08T01:48:58.537Z,2.50
2019-03-08T01:51:30.659Z,2.43
2019-03-08T01:54:00.299Z,2.10
2019-03-08T01:56:30.436Z,2.00
2019-03-08T01:59:00.216Z,2.20
2019-03-08T02:01:30.102Z,3.40
2019-03-08T02:03:59.800Z,2.23
2019-03-08T02:06:29.777Z,2.00
2019-03-08T02:08:59.575Z,2.63
2019-03-08T02:11:29.734Z,2.17
2019-03-08T02:13:59.393Z,2.53
2019-03-08T02:16:29.223Z,2.50
2019-03-08T02:18:59.112Z,2.87
2019-03-08T02:21:28.854Z,2.67
2019-03-08T02:23:58.667Z,2.27
2019-03-08T02:26:28.360Z,2.80
2019-03-08T02:28:57.960Z,3.10
2019-03-08T02:31:27.811Z,2.50
2019-03-08T02:33:57.861Z,3.33
2019-03-08T02:36:27.625Z,3.40
2019-03-08T02:38:57.308Z,2.63
2019-03-08T02:41:27.136Z,3.23
2019-03-08T02:43:57.029Z,3.03
2019-03-08T02:46:26.854Z,2.60
2019-03-08T02:48:56.990Z,2.77
2019-03-08T02:51:26.893Z,2.77
2019-03-08T02:53:56.857Z,3.27
2019-03-08T02:56:26.454Z,3.60
2019-03-08T02:58:56.510Z,2.73
2019-03-08T03:01:26.243Z,3.80
2019-03-08T03:03:55.911Z,3.17
2019-03-08T03:06:25.627Z,3.63
2019-03-08T03:08:55.337Z,2.57
2019-03-08T03:11:25.176Z,1.63
2019-03-08T03:13:55.071Z,1.77
2019-03-08T03:16:26.727Z,1.60
2019-03-08T03:18:56.703Z,1.60
2019-03-08T03:21:26.253Z,1.33
2019-03-08T03:23:55.954Z,1.83
2019-03-08T03:26:26.291Z,1.70
2019-03-08T03:28:56.219Z,1.90
2019-03-08T03:31:25.921Z,1.90
2019-03-08T03:33:55.559Z,2.60
2019-03-08T03:36:25.637Z,2.57
2019-03-08T03:38:55.811Z,2.60
2019-03-08T03:41:25.592Z,2.30
2019-03-08T03:43:55.861Z,2.50
2019-03-08T03:46:25.612Z,2.30
2019-03-08T03:48:55.241Z,2.40
2019-03-08T03:51:25.766Z,2.70
2019-03-08T03:53:55.537Z,2.50
2019-03-08T03:56:25.221Z,3.53
2019-03-08T03:58:54.963Z,3.27
2019-03-08T04:01:38.576Z,3.83
2019-03-08T04:04:08.296Z,3.10
2019-03-08T04:06:38.294Z,3.13
2019-03-08T04:09:13.022Z,3.87
2019-03-08T04:11:42.935Z,3.50
2019-03-08T04:14:13.203Z,3.60
2019-03-08T04:16:42.849Z,3.20
2019-03-08T04:19:12.686Z,3.20
2019-03-08T04:21:42.376Z,3.30
2019-03-08T04:24:12.369Z,3.07
2019-03-08T04:26:42.167Z,3.83
2019-03-08T04:29:12.484Z,4.10
2019-03-08T04:31:42.507Z,4.97
2019-03-08T04:34:12.378Z,3.87
2019-03-08T04:36:42.896Z,3.80
2019-03-08T04:39:12.745Z,3.77
2019-03-08T04:41:42.512Z,3.10
2019-03-08T04:44:13.013Z,3.60
2019-03-08T04:46:42.733Z,3.80
2019-03-08T04:49:12.518Z,3.83
2019-03-08T04:51:42.562Z,3.33
2019-03-08T04:54:12.427Z,3.73
2019-03-08T04:56:42.360Z,3.97
2019-03-08T04:59:12.477Z,4.60
2019-03-08T05:01:42.215Z,4.10
2019-03-08T05:04:12.990Z,3.93
2019-03-08T05:06:42.858Z,4.10
2019-03-08T05:09:12.915Z,4.37
2019-03-08T05:11:42.937Z,4.90
2019-03-08T05:14:12.880Z,3.93
2019-03-08T05:16:42.751Z,4.87
2019-03-08T05:19:12.826Z,4.03
2019-03-08T05:21:42.532Z,4.50
2019-03-08T05:24:12.357Z,4.70
2019-03-08T05:26:42.187Z,4.37
2019-03-08T05:29:11.903Z,4.43
2019-03-08T05:31:41.632Z,4.73
2019-03-08T05:34:11.618Z,4.50
2019-03-08T05:36:41.538Z,4.90
2019-03-08T05:39:15.054Z,4.97
2019-03-08T05:41:44.747Z,4.50
2019-03-08T05:44:15.177Z,5.13
2019-03-08T05:46:44.869Z,4.30
2019-03-08T05:49:14.794Z,5.53
2019-03-08T05:51:44.380Z,4.07
2019-03-08T05:54:14.038Z,3.97
2019-03-08T05:56:44.219Z,4.00
2019-03-08T05:59:14.007Z,3.90
2019-03-08T06:01:43.741Z,4.43
2019-03-08T06:04:13.519Z,4.53
2019-03-08T06:06:43.241Z,4.50
2019-03-08T06:09:13.275Z,4.47
2019-03-08T06:11:43.158Z,4.80
2019-03-08T06:14:13.233Z,5.00
2019-03-08T06:16:42.927Z,4.90
2019-03-08T06:19:13.100Z,5.00
2019-03-08T06:21:43.139Z,6.83
2019-03-08T06:24:13.284Z,6.03
2019-03-08T06:26:43.368Z,5.90
2019-03-08T06:29:13.391Z,5.50
2019-03-08T06:31:43.265Z,6.13
2019-03-08T06:34:13.025Z,6.50
2019-03-08T06:36:42.879Z,5.93
2019-03-08T06:39:12.522Z,7.50
2019-03-08T06:41:42.734Z,6.53
2019-03-08T06:44:12.906Z,7.17
2019-03-08T06:46:42.565Z,5.27
2019-03-08T06:49:12.305Z,6.00
2019-03-08T06:51:42.115Z,6.23
2019-03-08T06:54:11.916Z,6.40
2019-03-08T06:56:41.658Z,6.47
2019-03-08T06:59:34.477Z,6.43
2019-03-08T07:02:04.654Z,5.83
2019-03-08T07:04:34.727Z,6.10
2019-03-08T07:07:04.406Z,5.50
2019-03-08T07:09:34.630Z,5.60
2019-03-08T07:12:04.320Z,6.70
2019-03-08T07:14:34.223Z,6.03
2019-03-08T07:17:04.119Z,7.23
2019-03-08T07:19:40.961Z,5.57
2019-03-08T07:22:11.846Z,5.27
2019-03-08T07:25:12.928Z,5.63
2019-03-08T07:28:01.565Z,5.70
2019-03-08T07:30:46.341Z,5.33
2019-03-08T07:33:28.612Z,5.73
2019-03-08T07:36:10.669Z,5.33
2019-03-08T07:38:51.111Z,6.27
2019-03-08T07:41:34.393Z,5.40
2019-03-08T07:44:19.182Z,5.53
2019-03-08T07:47:08.018Z,4.93
2019-03-08T07:50:00.328Z,4.80
2019-03-08T07:53:03.956Z,4.47
2019-03-08T07:55:42.261Z,4.30
2019-03-08T07:58:29.945Z,4.87
2019-03-08T08:01:09.960Z,4.40
2019-03-08T08:03:48.831Z,5.00
2019-03-08T08:06:24.491Z,5.17
2019-03-08T08:09:34.487Z,4.30
2019-03-08T08:12:21.688Z,4.47
2019-03-08T08:15:03.797Z,4.10
2019-03-08T08:17:44.047Z,4.10
2019-03-08T08:20:41.940Z,3.60
2019-03-08T08:23:34.665Z,3.40
2019-03-08T08:26:27.055Z,3.53
2019-03-08T08:29:35.291Z,3.37
2019-03-08T08:32:28.524Z,3.07
2019-03-08T08:35:17.945Z,3.67
2019-03-08T08:38:02.978Z,3.60
2019-03-08T08:40:46.494Z,3.00
2019-03-08T08:43:37.065Z,3.40
2019-03-08T09:06:19.661Z,3.00
2019-03-08T09:09:03.032Z,3.10
2019-03-08T09:11:52.227Z,3.20
2019-03-08T09:14:29.331Z,3.33
2019-03-08T09:17:18.124Z,3.50
2019-03-08T09:20:07.251Z,3.43
2019-03-08T09:23:08.492Z,3.47
2019-03-08T09:25:55.837Z,3.33
2019-03-08T09:28:47.879Z,3.73
2019-03-08T09:31:52.498Z,3.00
2019-03-08T09:34:37.084Z,4.60
2019-03-08T09:37:34.710Z,3.60
2019-03-08T09:40:37.825Z,3.90
2019-03-08T09:43:17.220Z,3.40
2019-03-08T09:46:08.722Z,4.30
2019-03-08T09:48:56.047Z,3.77
2019-03-08T09:51:45.554Z,3.97
2019-03-08T09:54:25.483Z,3.27
2019-03-08T09:57:04.427Z,4.10
2019-03-08T09:59:51.945Z,3.17
2019-03-08T10:02:58.579Z,3.60
2019-03-08T10:05:56.326Z,3.50
2019-03-08T10:08:57.383Z,3.47
2019-03-08T10:11:44.768Z,3.40
2019-03-08T10:14:25.400Z,3.50
2019-03-08T10:17:17.305Z,3.57
2019-03-08T10:20:12.200Z,4.37
2019-03-08T10:22:59.934Z,3.50
2019-03-08T10:25:47.703Z,3.53
2019-03-08T10:28:36.563Z,4.30
2019-03-08T10:31:28.592Z,3.77
2019-03-08T10:34:09.257Z,2.97
2019-03-08T10:36:47.157Z,3.00
2019-03-08T10:39:23.316Z,3.63
2019-03-08T10:42:12.072Z,2.90
2019-03-08T10:44:53.762Z,3.30
2019-03-08T10:47:41.286Z,2.90
2019-03-08T10:50:29.225Z,4.43
2019-03-08T10:53:20.886Z,3.60
2019-03-08T10:56:02.088Z,4.10
2019-03-08T10:58:38.492Z,3.60
2019-03-08T11:01:30.282Z,3.53
2019-03-08T11:04:10.550Z,3.00
2019-03-08T11:07:01.070Z,3.03
2019-03-08T11:09:55.862Z,2.30
2019-03-08T11:12:53.728Z,2.87
2019-03-08T11:15:42.793Z,2.90
2019-03-08T11:18:38.879Z,3.50
2019-03-08T11:21:28.559Z,3.03
2019-03-08T11:24:20.835Z,3.67
2019-03-08T11:27:08.518Z,3.60
2019-03-08T11:30:03.258Z,3.03
2019-03-08T11:32:55.176Z,3.90
2019-03-08T11:35:36.678Z,3.93
2019-03-08T11:38:12.876Z,3.17
2019-03-08T11:41:07.516Z,3.40
2019-03-08T11:44:02.226Z,3.97
2019-03-08T11:46:51.074Z,3.10
2019-03-08T11:49:42.870Z,3.53
2019-03-08T11:52:34.013Z,3.00
2019-03-08T11:55:26.348Z,3.30
2019-03-08T11:58:06.877Z,2.90
2019-03-08T12:00:53.408Z,3.00
2019-03-08T12:03:52.583Z,2.87
2019-03-08T12:06:29.253Z,3.90
2019-03-08T12:09:11.043Z,3.63
2019-03-08T12:12:13.499Z,3.93
2019-03-08T12:14:54.200Z,3.50
2019-03-08T12:17:46.556Z,3.20
2019-03-08T12:20:31.591Z,2.67
2019-03-08T12:23:19.497Z,3.23
2019-03-08T12:26:07.253Z,3.33
2019-03-08T12:29:02.171Z,4.00
2019-03-08T12:31:48.255Z,3.50
2019-03-08T12:34:52.058Z,4.20
2019-03-08T12:37:33.661Z,2.83
2019-03-08T12:40:09.641Z,2.63
2019-03-08T12:42:54.521Z,3.93
2019-03-08T12:45:45.688Z,3.20
2019-03-08T12:48:37.508Z,2.77
2019-03-08T12:51:29.187Z,2.60
2019-03-08T12:54:19.487Z,2.80
2019-03-08T12:57:17.648Z,2.83
2019-03-08T13:00:02.884Z,4.70
2019-03-08T13:02:42.409Z,2.53
2019-03-08T13:05:23.431Z,2.60
2019-03-08T13:08:11.660Z,3.10
2019-03-08T13:10:42.007Z,4.20
2019-03-08T13:13:13.101Z,2.80
2019-03-08T13:15:43.228Z,3.53
2019-03-08T13:18:13.127Z,3.80
2019-03-08T13:20:43.101Z,3.60
2019-03-08T13:23:13.360Z,3.23
2019-03-08T13:25:43.076Z,3.03
2019-03-08T13:28:12.888Z,3.27
2019-03-08T13:30:43.006Z,3.70
2019-03-08T13:33:12.860Z,3.50
2019-03-08T13:35:43.049Z,3.93
2019-03-08T13:38:26.933Z,3.40
2019-03-08T13:40:44.846Z,3.43
2019-03-08T13:43:14.849Z,3.57
2019-03-08T13:45:44.759Z,3.80
2019-03-08T13:48:14.990Z,3.50
2019-03-08T13:50:44.955Z,3.63
2019-03-08T13:53:14.926Z,3.67
2019-03-08T13:55:45.181Z,4.07
2019-03-08T13:58:15.136Z,4.10
2019-03-08T14:00:45.623Z,3.87
2019-03-08T14:03:15.895Z,3.53
2019-03-08T14:05:45.883Z,3.60
2019-03-08T14:08:15.717Z,2.97
2019-03-08T14:10:45.354Z,3.17
2019-03-08T14:13:15.605Z,3.20
2019-03-08T14:15:45.534Z,3.30
2019-03-08T14:18:15.854Z,2.67
2019-03-08T14:20:45.646Z,2.80
2019-03-08T14:23:15.573Z,2.90
2019-03-08T14:25:46.116Z,3.23
2019-03-08T14:28:16.036Z,2.87
2019-03-08T14:30:57.733Z,3.70
2019-03-08T14:33:26.328Z,2.40
2019-03-08T14:35:58.019Z,2.93
2019-03-08T14:38:36.612Z,3.00
2019-03-08T14:41:20.583Z,3.73
2019-03-08T14:44:15.322Z,2.77
2019-03-08T14:46:53.076Z,3.23
2019-03-08T14:49:22.891Z,3.30
2019-03-08T14:51:52.507Z,3.13
2019-03-08T14:54:22.692Z,3.07
2019-03-08T14:56:52.890Z,2.43
2019-03-08T14:59:22.863Z,2.90
2019-03-08T15:01:52.861Z,2.53
2019-03-08T15:04:23.231Z,3.93
2019-03-08T15:06:53.203Z,2.23
2019-03-08T15:09:23.046Z,2.07
2019-03-08T15:11:56.069Z,2.53
2019-03-08T15:14:24.506Z,2.27
2019-03-08T15:16:54.701Z,1.67
2019-03-08T15:19:24.765Z,2.10
2019-03-08T15:21:55.036Z,1.90
2019-03-08T15:24:24.769Z,2.30
2019-03-08T15:26:54.930Z,1.93
2019-03-08T15:29:25.128Z,1.83
2019-03-08T15:31:55.239Z,2.87
2019-03-08T15:34:25.309Z,2.00
2019-03-08T15:36:55.846Z,2.37
2019-03-08T15:39:25.823Z,2.03
2019-03-08T15:41:58.567Z,2.10
2019-03-08T15:44:28.170Z,2.03
2019-03-08T15:46:59.373Z,3.40
2019-03-08T15:49:30.836Z,1.80
2019-03-08T15:52:03.641Z,2.10
2019-03-08T15:54:32.912Z,2.30
2019-03-08T15:57:03.062Z,1.83
2019-03-08T15:59:33.250Z,1.73
2019-03-08T16:02:06.201Z,1.83
2019-03-08T16:04:34.909Z,1.70
2019-03-08T16:07:05.314Z,1.60
2019-03-08T16:09:35.992Z,1.90
2019-03-08T16:12:06.604Z,1.90
2019-03-08T16:14:36.866Z,1.90
2019-03-08T16:17:06.808Z,2.77
2019-03-08T16:19:36.658Z,2.10
2019-03-08T16:22:08.588Z,1.67
2019-03-08T16:24:39.263Z,2.17
2019-03-08T16:27:09.624Z,1.37
2019-03-08T16:29:39.924Z,1.80
2019-03-08T16:32:31.198Z,1.93
2019-03-08T16:35:00.954Z,1.60
2019-03-08T16:37:48.481Z,1.83
2019-03-08T16:40:35.756Z,3.00
2019-03-08T16:43:27.424Z,2.07
2019-03-08T16:46:14.504Z,2.07
2019-03-08T16:48:50.182Z,2.27
2019-03-08T16:51:34.697Z,1.70
2019-03-08T16:54:24.423Z,1.77
2019-03-08T16:57:13.892Z,2.30
2019-03-08T16:59:53.439Z,2.23
2019-03-08T17:02:51.255Z,2.10
2019-03-08T17:05:39.029Z,2.77
2019-03-08T17:08:25.692Z,2.63
2019-03-08T17:11:13.451Z,2.40
2019-03-08T17:13:55.054Z,2.30
2019-03-08T17:16:42.679Z,2.30
2019-03-08T17:19:43.314Z,2.90
2019-03-08T17:22:44.357Z,2.67
2019-03-08T17:25:20.711Z,3.10
2019-03-08T17:28:07.429Z,2.73
2019-03-08T17:31:02.636Z,2.93
2019-03-08T17:33:51.584Z,2.40
2019-03-08T17:36:34.509Z,2.23
2019-03-08T17:39:13.093Z,2.20
2019-03-08T17:42:01.679Z,2.03
2019-03-08T17:44:50.945Z,1.80
2019-03-08T17:47:29.050Z,1.60
2019-03-08T17:50:20.789Z,2.07
2019-03-08T17:53:08.203Z,2.30
2019-03-08T17:55:51.602Z,1.50
2019-03-08T17:58:40.016Z,2.00
2019-03-08T18:01:24.487Z,1.93
2019-03-08T18:04:16.462Z,2.00
2019-03-08T18:07:04.193Z,2.30
2019-03-08T18:09:51.613Z,1.87
2019-03-08T18:12:43.132Z,2.10
2019-03-08T18:15:32.194Z,1.97
2019-03-08T18:18:20.334Z,2.20
2019-03-08T18:21:08.066Z,2.57
2019-03-08T18:24:06.101Z,2.00
2019-03-08T18:26:53.409Z,2.10
2019-03-08T18:29:37.363Z,3.10
2019-03-08T18:32:18.429Z,2.10
2019-03-08T18:35:04.775Z,2.30
2019-03-08T18:37:56.460Z,2.37
2019-03-08T18:41:00.613Z,3.17
2019-03-08T18:43:53.023Z,2.63
2019-03-08T18:46:40.784Z,2.83
2019-03-08T18:49:17.038Z,2.83
2019-03-08T18:52:11.552Z,3.23
2019-03-08T18:55:03.611Z,3.53
2019-03-08T18:57:42.647Z,3.00
2019-03-08T19:00:28.645Z,2.70
2019-03-08T19:03:23.687Z,3.00
2019-03-08T19:06:08.245Z,3.60
2019-03-08T19:08:49.693Z,3.60
2019-03-08T19:11:57.014Z,3.97
2019-03-08T19:14:49.308Z,3.27
2019-03-08T19:17:34.874Z,3.50
2019-03-08T19:20:30.044Z,3.50
2019-03-08T19:23:10.577Z,3.90
2019-03-08T19:26:11.447Z,3.67
2019-03-08T19:29:03.278Z,2.80
2019-03-08T19:32:16.963Z,3.47
2019-03-08T19:35:14.670Z,4.03
2019-03-08T19:38:02.357Z,3.13
2019-03-08T19:40:43.296Z,2.93
2019-03-08T19:43:24.370Z,2.97
2019-03-08T19:46:32.147Z,2.80
2019-03-08T19:49:30.220Z,2.97
2019-03-08T19:52:10.648Z,3.60
2019-03-08T19:55:15.101Z,2.97
2019-03-08T19:58:12.868Z,3.20
2019-03-08T20:01:02.141Z,4.00
2019-03-08T20:03:53.866Z,3.37
2019-03-08T20:06:48.450Z,3.50
2019-03-08T20:09:36.206Z,4.10
2019-03-08T20:12:24.822Z,3.50
2019-03-08T20:15:25.530Z,3.70
2019-03-08T20:18:01.419Z,4.10
2019-03-08T20:20:56.933Z,4.27
2019-03-08T20:23:44.993Z,3.57
2019-03-08T20:26:32.705Z,3.57
2019-03-08T20:29:20.527Z,4.03
2019-03-08T20:32:28.235Z,3.80
2019-03-08T20:35:16.345Z,3.67
2019-03-08T20:38:11.375Z,4.00
2019-03-08T20:40:56.072Z,3.93
2019-03-08T20:43:34.757Z,3.87
2019-03-08T20:46:11.018Z,4.60
2019-03-08T20:48:41.100Z,4.40
2019-03-08T20:51:11.291Z,3.73
2019-03-08T20:53:41.548Z,3.87
2019-03-08T20:56:12.090Z,3.43
2019-03-08T20:58:42.452Z,4.37
2019-03-08T21:01:13.030Z,4.23
2019-03-08T21:03:43.268Z,3.80
2019-03-08T21:06:13.127Z,3.80
2019-03-08T21:08:43.443Z,3.67
2019-03-08T21:11:14.310Z,3.70
2019-03-08T21:13:45.211Z,2.90
2019-03-08T21:16:15.061Z,3.83
2019-03-08T21:18:45.213Z,3.00
2019-03-08T21:21:15.240Z,3.60
2019-03-08T21:23:45.221Z,3.10
2019-03-08T21:26:15.490Z,3.70
2019-03-08T21:28:45.457Z,3.40
2019-03-08T21:31:15.395Z,3.30
2019-03-08T21:33:45.174Z,3.40
2019-03-08T21:36:16.208Z,4.20
2019-03-08T21:38:45.993Z,3.10
2019-03-08T21:41:16.499Z,3.73
2019-03-08T21:43:46.869Z,3.13
2019-03-08T21:46:16.927Z,3.60
2019-03-08T21:48:47.319Z,3.30
2019-03-08T21:51:17.634Z,3.07
2019-03-08T21:53:47.846Z,2.97
2019-03-08T21:56:18.147Z,3.10
2019-03-08T21:58:48.262Z,3.17
2019-03-08T22:01:18.442Z,3.87
2019-03-08T22:03:54.813Z,2.53
2019-03-08T22:06:25.498Z,2.90
2019-03-08T22:09:24.107Z,2.97
2019-03-08T22:11:54.019Z,2.30
2019-03-08T22:14:24.163Z,2.90
2019-03-08T22:16:54.465Z,2.60
2019-03-08T22:19:24.229Z,2.60
2019-03-08T22:21:54.213Z,2.70
2019-03-08T22:24:23.907Z,2.70
2019-03-08T22:26:54.054Z,2.90
2019-03-08T22:29:24.312Z,2.70
2019-03-08T22:31:54.457Z,2.60
2019-03-08T22:34:24.246Z,2.83
2019-03-08T22:36:54.406Z,2.60
2019-03-08T22:39:24.234Z,2.53
2019-03-08T22:41:54.400Z,2.80
2019-03-08T22:44:24.469Z,2.50
2019-03-08T22:46:54.351Z,3.00
2019-03-08T22:49:24.266Z,2.80
2019-03-08T22:51:55.268Z,2.60
2019-03-08T22:54:25.421Z,2.50
2019-03-08T22:56:56.058Z,2.53
2019-03-08T22:59:26.330Z,2.80
2019-03-08T23:02:03.429Z,2.60
2019-03-08T23:04:33.560Z,2.23
2019-03-08T23:07:03.597Z,2.10
2019-03-08T23:09:33.824Z,3.17
2019-03-08T23:12:03.993Z,2.30
2019-03-08T23:14:34.102Z,2.70
2019-03-08T23:17:04.305Z,2.63
2019-03-08T23:19:34.596Z,2.47
2019-03-08T23:22:04.551Z,2.73
2019-03-08T23:24:34.493Z,2.30
2019-03-08T23:27:29.627Z,3.33
2019-03-08T23:30:21.208Z,3.20
2019-03-08T23:32:53.531Z,2.60
2019-03-08T23:35:23.224Z,3.40
2019-03-08T23:37:53.315Z,1.90
2019-03-08T23:40:23.161Z,2.30
2019-03-08T23:42:52.914Z,2.40
2019-03-08T23:45:23.073Z,2.47
2019-03-08T23:47:52.968Z,2.97
2019-03-08T23:50:23.432Z,2.73
2019-03-08T23:52:53.587Z,2.00
2019-03-08T23:55:23.965Z,2.13
2019-03-08T23:57:54.143Z,1.83
